Zawiercie, Poland
Current Conditions -  °F | °C
As of 2:30 PM on Sunday 21 Dec 2014 (Local Time) from EPKT Reporting Station
Rain Showers Rain Showers  
Wind Chill: 31°   Ceiling: 4000
Heat Index: 37°   Visibility: 6mi
Dew Point: 34°   Wind: 9mph
Humidity: 87%   Direction: 270°W
Pressure: 30.18"   Gusts: NA
Location:  50.49°N, 19.42°E
Report Text: EPKT 211230Z 27008KT 9999 -SHRA SCT013 SCT019CB BKN040 03/01 Q1022
Loading
Personal Weather Stations






























Interactive Weather Map New forecast layout! Learn more

10-Day Weather Forecast

Advertisements
Track Severe Weather on mobile